Time;durP1;ratioP1;P1;durP2;ratioP2;P2;SDS_P1;SDS_P2;PMS_P1;PMS_P2;Temp;Humidity;BMP_temperature;BMP_pressure;BME280_temperature;BME280_humidity;BME280_pressure;Samples;Min_cycle;Max_cycle;Signal;HPM_P1;HPM_P2
2023/11/07 00:02:27;;;;;;;5.10;1.80;;;;;;;11.35;56.60;100150.98;106507;1254;64876;-65
2023/11/07 00:04:55;;;;;;;4.70;1.90;;;;;;;11.36;56.68;100155.53;106359;1254;61327;-60
2023/11/07 00:07:26;;;;;;;4.60;1.60;;;;;;;11.35;56.74;100158.73;105426;1254;63721;-59
2023/11/07 00:09:54;;;;;;;4.30;1.50;;;;;;;11.34;56.68;100158.14;107112;1256;60538;-62
2023/11/07 00:12:22;;;;;;;5.30;1.80;;;;;;;11.32;56.63;100155.13;105137;1252;60597;-60
2023/11/07 00:14:50;;;;;;;5.50;1.80;;;;;;;11.30;56.80;100153.90;105939;1254;64868;-59
2023/11/07 00:17:20;;;;;;;6.00;1.90;;;;;;;11.27;56.73;100158.69;106014;1258;60589;-59
2023/11/07 00:19:48;;;;;;;5.60;2.00;;;;;;;11.25;56.84;100160.11;105356;1254;62463;-62
2023/11/07 00:22:16;;;;;;;5.70;2.00;;;;;;;11.24;57.00;100164.09;105199;1254;60550;-61
2023/11/07 00:24:44;;;;;;;4.70;1.60;;;;;;;11.26;56.92;100166.18;106127;1257;60439;-60
2023/11/07 00:27:11;;;;;;;4.70;1.40;;;;;;;11.31;56.81;100168.35;106549;1255;65074;-56
2023/11/07 00:29:39;;;;;;;1.60;0.50;;;;;;;11.34;56.92;100169.54;106027;1254;61328;-58
2023/11/07 00:32:06;;;;;;;7.50;1.60;;;;;;;11.33;56.87;100171.50;105599;1257;62444;-56
2023/11/07 00:34:34;;;;;;;5.20;1.80;;;;;;;11.32;56.91;100174.08;105364;1258;60654;-55
2023/11/07 00:37:03;;;;;;;5.10;1.70;;;;;;;11.29;57.11;100170.98;105849;1256;60447;-55
2023/11/07 00:39:31;;;;;;;5.20;1.80;;;;;;;11.26;57.22;100176.73;105953;1254;64932;-55
2023/11/07 00:41:58;;;;;;;3.70;0.90;;;;;;;11.23;57.39;100174.86;105417;1257;60562;-57
2023/11/07 00:44:26;;;;;;;5.70;2.00;;;;;;;11.19;57.36;100174.65;105347;1258;62547;-57
2023/11/07 00:46:54;;;;;;;4.60;1.40;;;;;;;11.17;57.48;100174.01;105929;1254;60591;-60
2023/11/07 00:49:21;;;;;;;6.40;1.80;;;;;;;11.20;57.44;100170.97;106913;1254;60376;-58
2023/11/07 00:51:49;;;;;;;4.00;1.70;;;;;;;11.24;57.51;100177.42;105277;1256;65262;-54
2023/11/07 00:54:16;;;;;;;4.90;1.60;;;;;;;11.26;57.50;100178.99;105341;1254;61277;-56
2023/11/07 00:56:44;;;;;;;2.80;0.60;;;;;;;11.27;57.55;100175.25;105390;1254;63735;-58
2023/11/07 00:59:12;;;;;;;5.00;1.80;;;;;;;11.26;57.54;100181.79;105424;1253;60609;-57
2023/11/07 01:01:40;;;;;;;4.00;1.30;;;;;;;11.24;57.63;100179.31;105652;1254;60337;-56
2023/11/07 01:04:08;;;;;;;5.60;1.90;;;;;;;11.23;57.67;100180.85;105791;1254;63650;-56
2023/11/07 01:06:36;;;;;;;4.10;0.80;;;;;;;11.20;57.87;100184.25;105334;1256;61552;-57
2023/11/07 01:09:04;;;;;;;5.80;1.70;;;;;;;11.21;57.74;100188.24;105287;1254;63837;-56
2023/11/07 01:11:31;;;;;;;6.50;2.20;;;;;;;11.25;57.71;100186.16;105674;1254;60437;-57
2023/11/07 01:13:59;;;;;;;7.60;1.60;;;;;;;11.25;57.80;100186.13;105262;1257;60506;-59
2023/11/07 01:16:27;;;;;;;5.00;2.10;;;;;;;11.23;57.76;100187.84;106613;1253;63693;-55
2023/11/07 01:18:55;;;;;;;6.30;2.10;;;;;;;11.21;57.84;100188.92;105274;1254;62047;-56
2023/11/07 01:21:23;;;;;;;4.70;1.70;;;;;;;11.19;57.91;100191.67;107321;1254;63870;-57
2023/11/07 01:23:51;;;;;;;2.80;1.10;;;;;;;11.17;58.04;100192.39;105341;1257;60530;-55
2023/11/07 01:26:19;;;;;;;4.40;1.60;;;;;;;11.16;57.99;100199.73;105333;1254;62258;-58
2023/11/07 01:28:47;;;;;;;2.00;0.60;;;;;;;11.14;57.99;100200.94;105250;1254;64944;-54
2023/11/07 01:31:14;;;;;;;5.10;1.70;;;;;;;11.15;58.02;100206.08;105474;1254;60482;-55
2023/11/07 01:33:42;;;;;;;3.60;1.00;;;;;;;11.19;58.09;100209.64;106006;1257;63746;-56
2023/11/07 01:36:10;;;;;;;9.90;2.10;;;;;;;11.20;58.14;100212.49;105303;1253;60981;-57
2023/11/07 01:38:38;;;;;;;4.70;1.90;;;;;;;11.20;58.20;100212.17;105524;1256;60390;-56
2023/11/07 01:41:05;;;;;;;6.30;1.90;;;;;;;11.20;58.22;100221.51;106324;1254;64947;-58
2023/11/07 01:43:33;;;;;;;5.80;2.10;;;;;;;11.18;58.14;100220.59;105845;1258;61978;-57
2023/11/07 01:46:02;;;;;;;5.50;2.20;;;;;;;11.16;58.21;100218.46;106729;1255;63653;-57
2023/11/07 01:48:30;;;;;;;2.60;0.90;;;;;;;11.14;58.26;100221.84;106612;1254;60561;-58
2023/11/07 01:50:58;;;;;;;7.90;1.90;;;;;;;11.11;58.30;100226.11;105452;1256;60443;-55
2023/11/07 01:53:26;;;;;;;5.20;2.10;;;;;;;11.10;58.31;100225.52;105508;1252;65516;-56
2023/11/07 01:55:54;;;;;;;4.80;1.80;;;;;;;11.13;58.41;100228.71;105725;1254;61645;-56
2023/11/07 01:58:21;;;;;;;2.40;0.70;;;;;;;11.18;58.31;100235.34;106501;1252;62437;-55
2023/11/07 02:00:49;;;;;;;4.80;1.70;;;;;;;11.21;58.25;100234.21;106767;1254;60406;-57
2023/11/07 02:03:17;;;;;;;5.90;2.00;;;;;;;11.21;58.16;100230.00;105292;1254;60495;-56
2023/11/07 02:05:46;;;;;;;5.20;1.60;;;;;;;11.20;58.26;100238.00;105439;1253;64890;-55
2023/11/07 02:08:14;;;;;;;5.00;2.00;;;;;;;11.17;58.23;100242.59;105406;1257;60510;-63
2023/11/07 02:10:42;;;;;;;7.10;1.60;;;;;;;11.14;58.32;100242.98;105158;1255;63880;-60
2023/11/07 02:13:10;;;;;;;5.70;2.40;;;;;;;11.13;58.34;100242.98;105383;1254;60555;-60
2023/11/07 02:15:38;;;;;;;4.70;1.70;;;;;;;11.11;58.31;100243.64;106277;1254;59298;-61
2023/11/07 02:18:06;;;;;;;2.30;0.60;;;;;;;11.12;58.31;100243.53;105360;1256;65382;-60
2023/11/07 02:20:38;;;;;;;5.40;1.90;;;;;;;11.16;58.24;100249.52;106317;1255;61292;-65
2023/11/07 02:23:19;;;;;;;4.90;2.10;;;;;;;11.20;58.21;100250.98;106345;1254;62460;-63
2023/11/07 02:25:51;;;;;;;5.00;1.90;;;;;;;11.21;58.13;100252.17;106000;1254;60657;-61
2023/11/07 02:28:18;;;;;;;7.60;2.00;;;;;;;11.18;58.23;100253.60;105481;1256;60357;-60
2023/11/07 02:30:46;;;;;;;4.30;1.80;;;;;;;11.16;58.33;100257.97;106199;1257;63640;-59
2023/11/07 02:33:14;;;;;;;6.40;1.80;;;;;;;11.14;58.30;100260.64;106010;1257;61994;-60
2023/11/07 02:35:42;;;;;;;5.30;2.30;;;;;;;11.09;58.47;100261.95;106399;1257;63812;-62
2023/11/07 02:38:11;;;;;;;3.30;1.10;;;;;;;11.05;58.50;100265.63;105731;1254;60501;-60
2023/11/07 02:40:38;;;;;;;4.70;1.80;;;;;;;11.00;58.65;100268.67;106201;1253;60418;-63
2023/11/07 02:43:06;;;;;;;4.30;1.90;;;;;;;10.96;58.74;100270.17;105410;1256;63988;-63
2023/11/07 02:45:36;;;;;;;5.70;2.10;;;;;;;10.97;58.84;100270.65;105796;1259;61537;-61
2023/11/07 02:48:05;;;;;;;6.80;1.90;;;;;;;11.00;58.75;100272.73;106178;1259;62579;-61
2023/11/07 02:50:33;;;;;;;4.90;1.60;;;;;;;11.03;58.74;100281.67;103729;1256;3372033;-57
2023/11/07 02:55:40;;;;;;;4.20;1.70;;;;;;;10.81;59.40;100288.93;102388;1294;600415;-60
2023/11/07 02:58:08;;;;;;;5.00;2.20;;;;;;;11.00;58.82;100291.12;104843;1267;59227;-57
2023/11/07 03:00:35;;;;;;;5.20;1.90;;;;;;;10.99;58.81;100294.54;104843;1265;59378;-60
2023/11/07 03:03:03;;;;;;;5.30;2.10;;;;;;;10.96;58.89;100299.30;104563;1267;63409;-58
2023/11/07 03:05:31;;;;;;;5.80;2.10;;;;;;;10.93;58.95;100301.48;104565;1266;61812;-61
2023/11/07 03:08:01;;;;;;;3.20;0.80;;;;;;;10.90;59.02;100300.35;104901;1269;63703;-61
2023/11/07 03:10:28;;;;;;;4.00;1.80;;;;;;;10.91;59.05;100305.16;102814;1264;3220882;-58
2023/11/07 03:12:56;;;;;;;5.50;1.80;;;;;;;10.96;58.94;100311.63;105426;1264;59391;-58
2023/11/07 03:15:24;;;;;;;8.20;2.00;;;;;;;11.00;58.90;100313.94;105221;1263;63307;-59
2023/11/07 03:17:51;;;;;;;6.20;2.30;;;;;;;11.01;58.94;100311.95;105466;1264;61627;-59
2023/11/07 03:20:20;;;;;;;4.90;1.80;;;;;;;11.01;58.92;100318.77;104676;1264;70986;-61
2023/11/07 03:22:48;;;;;;;1.80;0.80;;;;;;;11.00;58.81;100318.68;104876;1264;59676;-58
2023/11/07 03:25:16;;;;;;;6.10;1.90;;;;;;;10.98;58.88;100324.98;104813;1263;59643;-58
2023/11/07 03:27:44;;;;;;;6.00;1.60;;;;;;;10.94;58.91;100327.34;105300;1264;64803;-59
2023/11/07 03:30:12;;;;;;;2.80;0.70;;;;;;;10.92;58.96;100329.98;105187;1268;61427;-62
2023/11/07 03:32:41;;;;;;;5.50;1.70;;;;;;;10.93;59.13;100333.76;105206;1264;62648;-58
2023/11/07 03:35:09;;;;;;;6.00;2.20;;;;;;;10.97;58.98;100339.28;104946;1268;59535;-59
2023/11/07 03:37:37;;;;;;;6.20;2.00;;;;;;;10.98;59.01;100346.54;104881;1265;59735;-58
2023/11/07 03:40:06;;;;;;;6.70;2.00;;;;;;;10.97;59.06;100355.38;105848;1259;62842;-60
2023/11/07 03:42:34;;;;;;;5.00;2.20;;;;;;;10.96;58.94;100358.25;104928;1258;61431;-58
2023/11/07 03:45:01;;;;;;;2.90;0.80;;;;;;;10.95;59.01;100357.64;105332;1260;64284;-61
2023/11/07 03:47:29;;;;;;;6.10;2.10;;;;;;;10.93;58.97;100359.06;105778;1260;59732;-58
2023/11/07 03:49:57;;;;;;;4.90;2.10;;;;;;;10.91;59.04;100360.60;105895;1259;59802;-61
2023/11/07 03:52:25;;;;;;;4.50;1.80;;;;;;;10.93;58.93;100361.84;105493;1261;64117;-58
2023/11/07 03:54:53;;;;;;;2.20;0.50;;;;;;;10.98;58.89;100364.08;106160;1260;61477;-59
2023/11/07 03:57:20;;;;;;;4.20;1.50;;;;;;;11.00;59.06;100370.59;104887;1261;63786;-61
2023/11/07 03:59:49;;;;;;;8.30;1.80;;;;;;;11.01;58.89;100373.02;105001;1264;60823;-60
2023/11/07 04:02:17;;;;;;;4.60;1.70;;;;;;;11.00;58.93;100369.92;104947;1260;59566;-61
2023/11/07 04:04:45;;;;;;;4.70;1.20;;;;;;;10.99;58.84;100373.49;105267;1259;62882;-59
2023/11/07 04:07:12;;;;;;;5.70;1.80;;;;;;;10.98;58.94;100371.98;105063;1263;60286;-58
2023/11/07 04:09:40;;;;;;;2.60;0.90;;;;;;;10.96;58.91;100374.06;104832;1261;63796;-56
2023/11/07 04:12:08;;;;;;;5.00;1.80;;;;;;;11.00;58.96;100373.28;104807;1266;59938;-60
2023/11/07 04:14:35;;;;;;;4.70;1.90;;;;;;;11.04;58.74;100378.19;105039;1261;59793;-62
2023/11/07 04:17:04;;;;;;;7.30;2.00;;;;;;;11.06;58.73;100386.13;105146;1264;64128;-58
2023/11/07 04:19:33;;;;;;;3.20;1.00;;;;;;;11.05;58.77;100384.08;105281;1260;61334;-59
2023/11/07 04:22:04;;;;;;;4.90;1.70;;;;;;;11.03;58.87;100386.69;105266;1261;63837;-58
2023/11/07 04:24:31;;;;;;;8.30;2.00;;;;;;;11.00;58.91;100390.32;104941;1265;59739;-60
2023/11/07 04:26:59;;;;;;;4.80;1.80;;;;;;;10.97;58.92;100391.04;105028;1260;59688;-60
2023/11/07 04:29:27;;;;;;;2.00;0.60;;;;;;;10.93;59.09;100392.20;105194;1263;64223;-58
2023/11/07 04:31:54;;;;;;;6.10;1.90;;;;;;;10.92;59.12;100400.20;104621;1261;61369;-60
2023/11/07 04:34:22;;;;;;;5.10;1.70;;;;;;;10.93;59.13;100406.94;106863;1263;63694;-60
2023/11/07 04:36:51;;;;;;;5.30;1.80;;;;;;;10.94;59.20;100409.65;105470;1269;59748;-59
2023/11/07 04:39:19;;;;;;;5.20;2.10;;;;;;;10.96;59.35;100410.02;105415;1266;59962;-60
2023/11/07 04:41:47;;;;;;;5.70;2.00;;;;;;;10.98;59.43;100407.82;105029;1260;62899;-59
2023/11/07 04:44:15;;;;;;;5.20;2.30;;;;;;;10.96;59.47;100411.27;105171;1260;61409;-60
2023/11/07 04:46:43;;;;;;;5.00;1.10;;;;;;;10.93;59.53;100415.19;105502;1260;63730;-60
2023/11/07 04:49:10;;;;;;;8.80;2.00;;;;;;;10.90;59.52;100411.98;104882;1265;59746;-59
2023/11/07 04:51:38;;;;;;;4.20;1.10;;;;;;;10.87;59.62;100417.11;104859;1263;60828;-60
2023/11/07 04:54:06;;;;;;;7.60;2.00;;;;;;;10.88;59.66;100422.80;104842;1260;64243;-57
2023/11/07 04:56:34;;;;;;;7.10;2.10;;;;;;;10.92;59.64;100427.77;106433;1263;60119;-59
2023/11/07 04:59:02;;;;;;;5.20;2.10;;;;;;;10.94;59.59;100428.67;106111;1261;63744;-59
2023/11/07 05:01:30;;;;;;;6.00;2.10;;;;;;;10.93;59.77;100430.28;104809;1261;59704;-58
2023/11/07 05:03:58;;;;;;;2.60;1.00;;;;;;;10.93;59.72;100430.81;105927;1260;59689;-60
2023/11/07 05:06:27;;;;;;;12.00;2.20;;;;;;;10.93;59.79;100433.69;105581;1261;63370;-59
2023/11/07 05:08:55;;;;;;;4.60;2.00;;;;;;;10.90;59.80;100436.02;106603;1261;61374;-58
2023/11/07 05:11:23;;;;;;;2.80;0.80;;;;;;;10.85;59.80;100438.33;104788;1263;63830;-59
2023/11/07 05:13:50;;;;;;;5.50;2.20;;;;;;;10.80;59.78;100442.63;105110;1260;59680;-62
2023/11/07 05:16:19;;;;;;;6.10;2.10;;;;;;;10.74;59.87;100446.79;104640;1261;59883;-60
2023/11/07 05:18:47;;;;;;;3.60;0.60;;;;;;;10.74;60.00;100453.91;104743;1266;64135;-62
2023/11/07 05:21:16;;;;;;;5.80;2.10;;;;;;;10.79;59.88;100454.65;104841;1266;61357;-59
2023/11/07 05:23:43;;;;;;;5.50;2.00;;;;;;;10.81;60.00;100461.67;104765;1262;63749;-60
2023/11/07 05:26:11;;;;;;;3.60;0.70;;;;;;;10.79;60.01;100459.66;104799;1266;59749;-59
2023/11/07 05:28:39;;;;;;;5.90;2.00;;;;;;;10.77;60.11;100460.52;106354;1259;59644;-58
2023/11/07 05:31:06;;;;;;;4.50;2.00;;;;;;;10.76;60.21;100466.30;104911;1260;64092;-59
2023/11/07 05:33:36;;;;;;;6.10;2.10;;;;;;;10.74;60.21;100471.15;105145;1260;61948;-59
2023/11/07 05:36:04;;;;;;;4.00;1.00;;;;;;;10.71;60.31;100476.11;106479;1260;63799;-62
2023/11/07 05:38:31;;;;;;;5.00;2.00;;;;;;;10.69;60.43;100478.74;105189;1263;59685;-63
2023/11/07 05:40:59;;;;;;;2.10;0.50;;;;;;;10.70;60.43;100481.80;104705;1265;59566;-61
2023/11/07 05:43:27;;;;;;;6.10;2.40;;;;;;;10.76;60.33;100488.85;105730;1260;65046;-60
2023/11/07 05:45:55;;;;;;;7.50;2.50;;;;;;;10.84;60.28;100492.86;105905;1266;60272;-59
2023/11/07 05:48:24;;;;;;;6.30;2.00;;;;;;;10.87;60.24;100494.85;105389;1265;63743;-58
2023/11/07 05:50:52;;;;;;;4.30;1.20;;;;;;;10.87;60.23;100497.00;104529;1265;59714;-58
2023/11/07 05:53:19;;;;;;;6.90;2.40;;;;;;;10.86;60.15;100500.03;105386;1266;59624;-55
2023/11/07 05:55:48;;;;;;;7.80;1.90;;;;;;;10.86;60.20;100506.66;105714;1265;64071;-59
2023/11/07 05:58:16;;;;;;;3.70;1.20;;;;;;;10.87;60.21;100513.16;105680;1259;61382;-53
2023/11/07 06:00:44;;;;;;;5.70;2.00;;;;;;;10.92;60.10;100516.98;104646;1266;62475;-58
2023/11/07 06:03:13;;;;;;;6.60;2.30;;;;;;;10.99;60.00;100518.33;106418;1260;59732;-59
2023/11/07 06:05:45;;;;;;;6.00;2.80;;;;;;;11.04;59.91;100526.20;105441;1260;62000;-59
2023/11/07 06:08:13;;;;;;;5.30;2.40;;;;;;;11.07;59.85;100526.51;104893;1261;62834;-57
2023/11/07 06:10:40;;;;;;;5.30;2.30;;;;;;;11.09;59.98;100528.58;108696;1260;60127;-57
2023/11/07 06:13:08;;;;;;;5.10;1.10;;;;;;;11.14;59.91;100536.76;108622;1260;64495;-59
2023/11/07 06:15:36;;;;;;;6.30;2.60;;;;;;;11.19;59.72;100540.11;108666;1260;57668;-61
2023/11/07 06:18:03;;;;;;;6.00;2.50;;;;;;;11.22;59.46;100544.21;105839;1264;59215;-58
2023/11/07 06:20:31;;;;;;;7.60;2.50;;;;;;;11.29;59.36;100545.39;106302;1265;64206;-59
2023/11/07 06:22:59;;;;;;;5.30;2.10;;;;;;;11.39;59.27;100544.31;104818;1265;61364;-60
2023/11/07 06:25:26;;;;;;;5.80;2.30;;;;;;;11.46;59.01;100545.66;105719;1259;62514;-53
2023/11/07 06:27:55;;;;;;;6.30;2.40;;;;;;;11.49;58.89;100554.31;104876;1263;59762;-57
2023/11/07 06:30:23;;;;;;;8.70;2.30;;;;;;;11.50;58.77;100551.63;104752;1265;60598;-57
2023/11/07 06:32:50;;;;;;;5.50;2.20;;;;;;;11.51;58.92;100550.17;106978;1260;64150;-54
2023/11/07 06:35:18;;;;;;;3.60;1.40;;;;;;;11.53;58.92;100550.16;105159;1266;60455;-55
2023/11/07 06:37:46;;;;;;;5.00;2.40;;;;;;;11.58;58.86;100548.16;104697;1264;64198;-55
2023/11/07 06:40:14;;;;;;;5.30;2.00;;;;;;;11.64;58.51;100548.36;105765;1266;59817;-54
2023/11/07 06:42:46;;;;;;;5.40;2.40;;;;;;;11.68;58.37;100548.00;105231;1260;59538;-58
2023/11/07 06:45:14;;;;;;;6.10;2.30;;;;;;;11.71;58.53;100551.82;105070;1260;64060;-57
2023/11/07 06:47:42;;;;;;;7.80;2.70;;;;;;;11.75;58.40;100554.07;104907;1261;61315;-58
2023/11/07 06:50:12;;;;;;;3.40;1.00;;;;;;;11.76;58.22;100556.88;105386;1265;64170;-56
2023/11/07 06:52:41;;;;;;;5.80;2.20;;;;;;;11.78;58.20;100561.70;104970;1261;59647;-56
2023/11/07 06:55:12;;;;;;;4.40;1.90;;;;;;;11.80;58.12;100562.00;105640;1260;59819;-55
2023/11/07 06:57:41;;;;;;;6.20;2.30;;;;;;;11.88;58.13;100567.33;105537;1260;64601;-56
2023/11/07 07:00:09;;;;;;;6.80;2.30;;;;;;;11.98;58.04;100572.37;105146;1263;61296;-54
2023/11/07 07:02:39;;;;;;;5.90;2.50;;;;;;;12.05;57.82;100576.70;105520;1261;62495;-56
2023/11/07 07:05:12;;;;;;;8.40;2.40;;;;;;;12.10;57.41;100583.30;105813;1262;60577;-56
2023/11/07 07:07:42;;;;;;;6.60;2.60;;;;;;;12.14;57.38;100587.54;105020;1266;61645;-56
2023/11/07 07:10:10;;;;;;;7.80;2.80;;;;;;;12.15;57.12;100583.75;104974;1260;63715;-52
2023/11/07 07:12:38;;;;;;;5.60;2.20;;;;;;;12.18;57.02;100581.80;104686;1260;62308;-49
2023/11/07 07:15:07;;;;;;;6.60;2.40;;;;;;;12.20;57.09;100585.09;105717;1263;63942;-55
2023/11/07 07:17:34;;;;;;;11.70;2.60;;;;;;;12.27;56.91;100580.88;105460;1263;60545;-54
2023/11/07 07:20:11;;;;;;;5.30;1.90;;;;;;;12.36;56.88;100576.02;104762;1260;60469;-57
2023/11/07 07:22:44;;;;;;;7.60;2.70;;;;;;;12.44;56.85;100575.84;108338;1260;67168;-54
2023/11/07 07:25:20;;;;;;;5.70;2.40;;;;;;;12.51;56.51;100578.30;106558;1263;61913;-55
2023/11/07 07:27:48;;;;;;;4.90;2.10;;;;;;;12.55;56.34;100571.83;106276;1262;63901;-51
2023/11/07 07:30:20;;;;;;;7.00;2.40;;;;;;;12.59;56.16;100566.38;104745;1260;60633;-53
2023/11/07 07:32:50;;;;;;;6.60;2.60;;;;;;;12.62;56.15;100563.45;104884;1260;60594;-55
2023/11/07 07:35:20;;;;;;;5.00;2.50;;;;;;;12.67;56.41;100566.51;107306;1263;65259;-53
2023/11/07 07:37:51;;;;;;;6.10;2.20;;;;;;;12.78;56.08;100573.91;104615;1261;61391;-52
2023/11/07 07:40:29;;;;;;;4.80;2.20;;;;;;;12.89;55.66;100577.70;105609;1263;64678;-52
2023/11/07 07:43:08;;;;;;;6.40;2.10;;;;;;;12.96;55.50;100578.37;107443;1260;61626;-51
2023/11/07 07:45:44;;;;;;;7.40;2.20;;;;;;;13.00;55.22;100583.61;104937;1266;61876;-53
2023/11/07 07:48:11;;;;;;;5.30;2.10;;;;;;;13.04;55.14;100590.43;104591;1260;63638;-52
2023/11/07 07:50:46;;;;;;;5.20;2.00;;;;;;;13.09;55.04;100596.41;105465;1265;60665;-53
2023/11/07 07:53:19;;;;;;;5.70;2.00;;;;;;;13.12;54.54;100599.25;106383;1260;75793;-52
2023/11/07 07:55:50;;;;;;;6.00;2.40;;;;;;;13.13;54.50;100604.62;104901;1260;60599;-52
2023/11/07 07:58:21;;;;;;;4.80;2.00;;;;;;;13.16;54.54;100606.69;106043;1259;60792;-53
2023/11/07 08:00:49;;;;;;;4.10;1.80;;;;;;;13.19;54.79;100610.67;104723;1259;63716;-53
2023/11/07 08:03:20;;;;;;;7.00;2.30;;;;;;;13.23;54.33;100618.23;105587;1261;61485;-53
2023/11/07 08:05:48;;;;;;;4.50;1.70;;;;;;;13.27;54.40;100616.71;104729;1266;63688;-53
2023/11/07 08:08:16;;;;;;;5.90;2.00;;;;;;;13.35;54.06;100616.17;105221;1260;61713;-55
2023/11/07 08:10:47;;;;;;;5.40;1.90;;;;;;;13.45;53.68;100622.18;105010;1260;60527;-53
2023/11/07 08:13:16;;;;;;;6.00;1.80;;;;;;;13.48;53.30;100631.94;105354;1262;64204;-54
2023/11/07 08:15:44;;;;;;;5.50;2.10;;;;;;;13.48;53.25;100633.83;104862;1266;60433;-52
2023/11/07 08:18:12;;;;;;;8.70;2.20;;;;;;;13.50;53.28;100637.75;105195;1264;64061;-53
2023/11/07 08:20:40;;;;;;;5.80;1.80;;;;;;;13.53;53.43;100642.05;105225;1264;60472;-52
2023/11/07 08:23:08;;;;;;;5.30;2.00;;;;;;;13.57;53.34;100644.75;105601;1261;60543;-54
2023/11/07 08:25:36;;;;;;;6.70;2.30;;;;;;;13.60;53.36;100645.52;105351;1260;65958;-52
2023/11/07 08:28:07;;;;;;;9.20;2.70;;;;;;;13.64;53.36;100645.66;104557;1260;63870;-55
2023/11/07 08:30:38;;;;;;;5.20;1.90;;;;;;;13.70;53.32;100652.58;108751;1260;74751;-54
2023/11/07 08:33:06;;;;;;;6.10;2.10;;;;;;;13.75;53.03;100655.44;108568;1260;59898;-53
2023/11/07 08:35:38;;;;;;;5.60;2.00;;;;;;;13.81;52.77;100658.98;108617;1260;58301;-55
2023/11/07 08:38:06;;;;;;;6.10;1.80;;;;;;;13.86;52.54;100654.52;106007;1261;64050;-56
2023/11/07 08:40:34;;;;;;;4.70;1.90;;;;;;;13.90;52.28;100652.85;104471;1266;60460;-55
2023/11/07 08:43:03;;;;;;;5.10;1.90;;;;;;;13.94;52.25;100660.98;108590;1265;64802;-58
2023/11/07 08:45:32;;;;;;;7.80;2.20;;;;;;;13.98;52.16;100657.14;104506;1259;60463;-56
2023/11/07 08:48:00;;;;;;;5.60;2.00;;;;;;;14.02;52.23;100664.05;104577;1266;60428;-51
2023/11/07 08:50:28;;;;;;;5.20;2.10;;;;;;;14.05;52.11;100665.19;108701;1260;63777;-53
2023/11/07 08:52:57;;;;;;;7.20;2.30;;;;;;;14.09;51.85;100661.58;108571;1260;61844;-54
2023/11/07 08:55:25;;;;;;;5.80;1.90;;;;;;;14.14;51.88;100665.56;108699;1260;62852;-54
2023/11/07 08:57:53;;;;;;;5.40;1.70;;;;;;;14.21;51.66;100664.98;108687;1262;58432;-54
2023/11/07 09:00:21;;;;;;;5.60;2.00;;;;;;;14.27;51.09;100662.27;106519;1261;60479;-55
2023/11/07 09:02:50;;;;;;;8.10;1.80;;;;;;;14.33;51.28;100664.54;106371;1259;63789;-56
2023/11/07 09:05:19;;;;;;;7.00;1.90;;;;;;;14.39;51.30;100667.39;105412;1260;60585;-56
2023/11/07 09:07:47;;;;;;;5.10;2.00;;;;;;;14.45;51.18;100675.24;108777;1260;64961;-54
2023/11/07 09:10:14;;;;;;;8.50;2.00;;;;;;;14.51;50.28;100672.83;108737;1259;59566;-56
2023/11/07 09:12:42;;;;;;;5.40;1.60;;;;;;;14.55;50.01;100673.84;108755;1260;58375;-57
2023/11/07 09:15:11;;;;;;;4.60;1.80;;;;;;;14.60;50.35;100672.35;108755;1259;65666;-56
2023/11/07 09:17:40;;;;;;;5.10;2.00;;;;;;;14.68;50.50;100674.27;108698;1260;63737;-58
2023/11/07 09:20:11;;;;;;;4.30;1.70;;;;;;;14.76;50.11;100674.95;107682;1260;64159;-59
2023/11/07 09:22:41;;;;;;;7.20;2.30;;;;;;;14.82;50.35;100670.80;106657;1265;59135;-55
2023/11/07 09:25:09;;;;;;;5.40;2.10;;;;;;;14.90;50.13;100675.19;105062;1266;61279;-56
2023/11/07 09:27:37;;;;;;;5.20;1.90;;;;;;;14.95;49.68;100674.77;105926;1264;65502;-55
2023/11/07 09:30:09;;;;;;;4.40;1.80;;;;;;;14.98;49.49;100673.77;104766;1261;61657;-57
2023/11/07 09:32:38;;;;;;;4.70;1.70;;;;;;;15.01;49.50;100663.93;106699;1265;64509;-56
2023/11/07 09:35:06;;;;;;;4.50;1.70;;;;;;;15.05;49.06;100663.77;105113;1266;61075;-59
2023/11/07 09:37:39;;;;;;;6.20;1.60;;;;;;;15.08;48.99;100656.36;105217;1266;62317;-60
2023/11/07 09:40:19;;;;;;;5.50;1.70;;;;;;;15.12;49.13;100653.75;105167;1263;76306;-57
2023/11/07 09:42:52;;;;;;;4.10;1.60;;;;;;;15.18;49.05;100651.05;104836;1261;71313;-55
2023/11/07 09:45:19;;;;;;;4.90;1.70;;;;;;;15.24;48.61;100651.02;105388;1260;74907;-55
2023/11/07 09:47:48;;;;;;;5.00;1.60;;;;;;;15.29;48.79;100643.30;104804;1260;61446;-57
2023/11/07 09:50:18;;;;;;;5.40;1.60;;;;;;;15.33;48.39;100647.82;104794;1261;60619;-54
2023/11/07 09:52:47;;;;;;;4.50;1.60;;;;;;;15.37;47.62;100635.95;104674;1261;67651;-56
2023/11/07 09:55:15;;;;;;;6.00;1.40;;;;;;;15.42;47.40;100651.77;105302;1260;72740;-54
2023/11/07 09:57:48;;;;;;;5.80;1.60;;;;;;;15.45;47.36;100642.25;104974;1266;64137;-58
2023/11/07 10:00:20;;;;;;;4.70;1.40;;;;;;;15.49;47.04;100642.40;105374;1261;60597;-57
2023/11/07 10:02:49;;;;;;;6.00;1.70;;;;;;;15.54;46.65;100648.42;105604;1261;60533;-56
2023/11/07 10:05:18;;;;;;;3.90;1.50;;;;;;;15.59;46.50;100651.69;104823;1261;67066;-59
2023/11/07 10:07:49;;;;;;;5.80;1.60;;;;;;;15.62;46.42;100653.21;104760;1265;61098;-57
2023/11/07 10:10:18;;;;;;;5.00;1.40;;;;;;;15.65;45.72;100655.88;105594;1263;62596;-57
2023/11/07 10:12:46;;;;;;;5.50;1.30;;;;;;;15.68;44.77;100657.20;104766;1265;60472;-57
2023/11/07 10:15:18;;;;;;;6.50;1.80;;;;;;;15.71;45.00;100656.70;104809;1260;60498;-59
2023/11/07 10:18:04;;;;;;;4.50;1.30;;;;;;;15.78;45.51;100654.63;105416;1260;65288;-58
2023/11/07 10:20:36;;;;;;;;;;;;;;;15.86;45.68;100659.51;105469;1260;72643;-59
2023/11/07 10:23:04;;;;;;;5.80;1.60;;;;;;;15.91;45.88;100661.31;105221;1264;62606;-59
2023/11/07 10:25:33;;;;;;;3.90;1.40;;;;;;;15.99;45.45;100663.05;105125;1266;60565;-58
2023/11/07 10:28:03;;;;;;;4.90;1.40;;;;;;;16.06;44.70;100663.08;105285;1260;60677;-58
2023/11/07 10:30:41;;;;;;;4.60;1.40;;;;;;;16.11;44.76;100660.11;106999;1261;66257;-54
2023/11/07 10:33:09;;;;;;;5.00;1.50;;;;;;;16.17;44.16;100659.50;105064;1261;62206;-55
2023/11/07 10:35:56;;;;;;;4.20;1.10;;;;;;;16.22;43.30;100665.58;104893;1261;64116;-55
2023/11/07 10:38:24;;;;;;;3.40;0.90;;;;;;;16.24;42.84;100658.36;104710;1265;62182;-56
2023/11/07 10:40:52;;;;;;;5.40;1.20;;;;;;;16.23;42.76;100656.66;104899;1259;60587;-55
2023/11/07 10:43:32;;;;;;;3.80;1.10;;;;;;;16.25;42.95;100656.64;104787;1265;66024;-57
2023/11/07 10:46:02;;;;;;;5.00;1.70;;;;;;;16.25;42.74;100657.10;105231;1266;60447;-56
2023/11/07 10:48:31;;;;;;;7.10;1.70;;;;;;;16.27;42.80;100651.74;104705;1266;66194;-59
2023/11/07 10:51:05;;;;;;;5.00;1.30;;;;;;;16.32;42.84;100652.16;106474;1262;60574;-58
2023/11/07 10:53:33;;;;;;;3.80;1.40;;;;;;;16.38;42.39;100650.84;105398;1261;60999;-57
2023/11/07 10:56:04;;;;;;;7.60;1.80;;;;;;;16.41;42.42;100651.48;105340;1265;65309;-56
2023/11/07 10:58:32;;;;;;;5.40;1.50;;;;;;;16.43;42.32;100650.23;105398;1260;61877;-57
2023/11/07 11:01:01;;;;;;;7.10;1.70;;;;;;;16.45;42.25;100649.80;105415;1264;64078;-56
2023/11/07 11:03:29;;;;;;;5.50;1.50;;;;;;;16.48;42.03;100651.09;105237;1259;60884;-56
2023/11/07 11:05:59;;;;;;;6.20;1.80;;;;;;;16.49;41.80;100645.85;105396;1261;60340;-56
2023/11/07 11:08:27;;;;;;;5.00;1.70;;;;;;;16.50;42.41;100644.19;105288;1265;65642;-58
2023/11/07 11:10:56;;;;;;;3.80;1.80;;;;;;;16.54;42.64;100642.86;105083;1267;60601;-57
2023/11/07 11:13:24;;;;;;;5.70;1.60;;;;;;;16.61;42.45;100645.73;106225;1264;64380;-58
2023/11/07 11:15:53;;;;;;;5.20;1.70;;;;;;;16.67;42.06;100644.73;106249;1260;62265;-58
2023/11/07 11:18:31;;;;;;;6.20;1.60;;;;;;;16.72;41.95;100642.48;104856;1261;61026;-58
2023/11/07 11:21:08;;;;;;;5.40;1.60;;;;;;;16.74;41.52;100641.90;105271;1260;63788;-55
2023/11/07 11:23:59;;;;;;;4.50;1.30;;;;;;;16.77;41.40;100645.86;105851;1265;71492;-58
2023/11/07 11:26:37;;;;;;;4.40;1.50;;;;;;;16.82;41.57;100639.02;106807;1264;63730;-54
2023/11/07 11:29:27;;;;;;;3.60;1.40;;;;;;;16.88;41.75;100637.16;106910;1260;59138;-57